Time;durP1;ratioP1;P1;durP2;ratioP2;P2;SDS_P1;SDS_P2;PMS_P1;PMS_P2;Temp;Humidity;BMP_temperature;BMP_pressure;BME280_temperature;BME280_humidity;BME280_pressure;Samples;Min_cycle;Max_cycle;Signal;HPM_P1;HPM_P2
2021/11/07 00:02:04;;;;;;;7.43;6.07;;;9.30;99.90;;;;;;5116260;28;20766;-69
2021/11/07 00:04:37;;;;;;;7.77;6.50;;;9.30;99.90;;;;;;5116280;28;20875;-69
2021/11/07 00:07:16;;;;;;;13.83;7.07;;;9.30;99.90;;;;;;5115668;28;20484;-69
2021/11/07 00:09:48;;;;;;;7.93;6.20;;;9.30;99.90;;;;;;5116365;28;20456;-69
2021/11/07 00:12:19;;;;;;;9.40;6.30;;;9.30;99.90;;;;;;5115946;28;20848;-68
2021/11/07 00:14:48;;;;;;;7.07;6.30;;;9.30;99.90;;;;;;5116228;27;20474;-68
2021/11/07 00:17:17;;;;;;;8.00;6.80;;;9.30;99.90;;;;;;5115755;28;20477;-68
2021/11/07 00:19:46;;;;;;;8.90;6.40;;;9.30;99.90;;;;;;5115760;28;20453;-69
2021/11/07 00:22:19;;;;;;;7.70;6.47;;;9.20;99.90;;;;;;5115737;28;20455;-68
2021/11/07 00:24:48;;;;;;;8.97;6.63;;;9.20;99.90;;;;;;5115853;28;20449;-68
2021/11/07 00:27:23;;;;;;;12.17;6.93;;;9.20;99.90;;;;;;5116087;28;20458;-68
2021/11/07 00:29:58;;;;;;;13.37;6.83;;;9.20;99.90;;;;;;5115797;28;20439;-69
2021/11/07 00:32:30;;;;;;;10.00;6.50;;;9.20;99.90;;;;;;5115481;28;20885;-68
2021/11/07 00:35:34;;;;;;;9.83;7.23;;;9.20;99.90;;;;;;5115690;27;20444;-69
2021/11/07 00:38:02;;;;;;;7.83;6.90;;;9.20;99.90;;;;;;5114415;28;20446;-69
2021/11/07 00:40:33;;;;;;;11.20;7.10;;;9.20;99.90;;;;;;5115263;28;20456;-67
2021/11/07 00:43:05;;;;;;;7.00;6.07;;;9.20;99.90;;;;;;5115827;28;20437;-68
2021/11/07 00:45:40;;;;;;;9.43;6.60;;;9.10;99.90;;;;;;5116060;28;20429;-68
2021/11/07 00:48:19;;;;;;;8.23;7.30;;;9.10;99.90;;;;;;5115291;28;20445;-69
2021/11/07 00:50:55;;;;;;;7.97;6.07;;;9.10;99.90;;;;;;5115628;28;20436;-69
2021/11/07 00:53:37;;;;;;;7.37;5.70;;;9.10;99.90;;;;;;5114917;28;20441;-68
2021/11/07 00:56:15;;;;;;;8.50;5.97;;;9.00;99.90;;;;;;5115229;28;20956;-68
2021/11/07 00:58:46;;;;;;;11.73;6.30;;;9.00;99.90;;;;;;5114997;28;20969;-68
2021/11/07 01:01:14;;;;;;;6.77;6.07;;;8.90;99.90;;;;;;5115166;28;20443;-68
2021/11/07 01:03:42;;;;;;;7.20;6.00;;;8.90;99.90;;;;;;5115361;28;20460;-68
2021/11/07 01:06:09;;;;;;;8.40;6.73;;;8.90;99.90;;;;;;5114957;28;20483;-69
2021/11/07 01:08:36;;;;;;;7.90;6.70;;;8.90;99.90;;;;;;5115469;28;20512;-68
2021/11/07 01:11:04;;;;;;;8.53;6.87;;;8.90;99.90;;;;;;5115510;28;20788;-69
2021/11/07 01:13:31;;;;;;;8.37;7.20;;;8.90;99.90;;;;;;5114705;28;20460;-68
2021/11/07 01:15:59;;;;;;;9.00;7.03;;;8.80;99.90;;;;;;5115251;28;20572;-68
2021/11/07 01:18:28;;;;;;;8.07;7.03;;;8.90;99.90;;;;;;5115099;28;20456;-68
2021/11/07 01:20:56;;;;;;;9.90;7.20;;;8.90;99.90;;;;;;5115038;28;20769;-68
2021/11/07 01:23:26;;;;;;;10.10;7.77;;;8.80;99.90;;;;;;5115047;28;20467;-68
2021/11/07 01:25:58;;;;;;;8.53;7.57;;;8.80;99.90;;;;;;5115160;28;20757;-68
2021/11/07 01:28:26;;;;;;;12.43;7.50;;;8.80;99.90;;;;;;5114901;28;20453;-68
2021/11/07 01:30:55;;;;;;;12.00;9.10;;;8.80;99.90;;;;;;5115148;28;20857;-68
2021/11/07 01:33:26;;;;;;;13.53;7.60;;;8.80;99.90;;;;;;5115098;28;20476;-70
2021/11/07 01:36:01;;;;;;;12.27;9.30;;;8.70;99.90;;;;;;5114457;28;20567;-68
2021/11/07 01:38:29;;;;;;;10.60;8.00;;;8.70;99.90;;;;;;5114606;28;20956;-68
2021/11/07 01:41:03;;;;;;;8.90;7.30;;;8.70;99.90;;;;;;5116090;28;20467;-68
2021/11/07 01:43:30;;;;;;;11.60;8.13;;;8.70;99.90;;;;;;5114662;28;20757;-68
2021/11/07 01:46:04;;;;;;;10.47;8.20;;;8.70;99.90;;;;;;5114997;28;20460;-68
2021/11/07 01:48:40;;;;;;;9.07;7.50;;;8.70;99.90;;;;;;5116577;28;20531;-68
2021/11/07 01:51:09;;;;;;;10.17;7.17;;;8.70;99.90;;;;;;5118700;28;20447;-69
2021/11/07 01:53:38;;;;;;;10.37;7.80;;;8.70;99.90;;;;;;5118730;28;20467;-68
2021/11/07 01:56:08;;;;;;;11.10;7.87;;;8.70;99.90;;;;;;5118753;28;20480;-69
2021/11/07 01:58:37;;;;;;;11.17;7.37;;;8.70;99.90;;;;;;5119077;28;20456;-68
2021/11/07 02:01:04;;;;;;;10.60;7.80;;;8.80;99.90;;;;;;5118571;28;20944;-68
2021/11/07 02:03:33;;;;;;;9.60;7.43;;;8.80;99.90;;;;;;5118200;28;20592;-68
2021/11/07 02:06:01;;;;;;;8.20;7.03;;;8.80;99.90;;;;;;5118371;28;20479;-68
2021/11/07 02:08:29;;;;;;;12.60;7.60;;;8.70;99.90;;;;;;5118181;28;20919;-68
2021/11/07 02:10:58;;;;;;;7.27;6.43;;;8.70;99.90;;;;;;5118177;28;20495;-68
2021/11/07 02:13:26;;;;;;;9.80;8.10;;;8.70;99.90;;;;;;5118447;28;20453;-69
2021/11/07 02:15:55;;;;;;;10.20;7.40;;;8.80;99.90;;;;;;5118259;28;20495;-68
2021/11/07 02:18:23;;;;;;;9.97;8.37;;;8.80;99.90;;;;;;5118345;28;20791;-68
2021/11/07 02:20:52;;;;;;;8.20;6.63;;;8.80;99.90;;;;;;5117835;28;20533;-68
2021/11/07 02:23:21;;;;;;;13.30;7.53;;;8.70;99.90;;;;;;5118388;28;20826;-68
2021/11/07 02:25:50;;;;;;;8.83;6.70;;;8.80;99.90;;;;;;5117783;28;20459;-68
2021/11/07 02:28:25;;;;;;;10.23;7.03;;;8.80;99.90;;;;;;5118053;28;20453;-68
2021/11/07 02:30:53;;;;;;;8.67;7.10;;;8.80;99.90;;;;;;5117909;27;20455;-68
2021/11/07 02:33:20;;;;;;;8.67;7.77;;;8.80;99.90;;;;;;5117797;28;20564;-68
2021/11/07 02:35:46;;;;;;;14.57;7.37;;;8.80;99.90;;;;;;5117448;28;20461;-68
2021/11/07 02:38:15;;;;;;;8.90;7.27;;;8.80;99.90;;;;;;5118415;28;20467;-68
2021/11/07 02:40:42;;;;;;;8.60;7.13;;;8.80;99.90;;;;;;5117501;28;20511;-68
2021/11/07 02:43:08;;;;;;;11.00;7.90;;;8.80;99.90;;;;;;5117826;28;20460;-68
2021/11/07 02:45:35;;;;;;;10.30;8.13;;;8.80;99.90;;;;;;5117984;28;20453;-69
2021/11/07 02:48:03;;;;;;;9.00;7.10;;;8.90;99.90;;;;;;5117787;28;20456;-69
2021/11/07 02:50:29;;;;;;;8.80;7.00;;;8.90;99.90;;;;;;5117646;27;20471;-69
2021/11/07 02:52:56;;;;;;;11.43;6.50;;;8.90;99.90;;;;;;5117577;28;20453;-68
2021/11/07 02:55:25;;;;;;;9.53;7.37;;;8.90;99.90;;;;;;5117617;28;20463;-69
2021/11/07 02:57:55;;;;;;;10.60;6.83;;;8.90;99.90;;;;;;5117640;28;20584;-69
2021/11/07 03:00:23;;;;;;;12.27;8.30;;;9.00;99.90;;;;;;5116619;28;20547;-69
2021/11/07 03:02:50;;;;;;;10.40;7.17;;;9.00;99.90;;;;;;5117718;28;20449;-69
2021/11/07 03:05:17;;;;;;;7.90;6.80;;;9.00;99.90;;;;;;5117136;28;20488;-69
2021/11/07 03:07:45;;;;;;;11.70;6.87;;;9.00;99.90;;;;;;5117469;28;20840;-68
2021/11/07 03:10:12;;;;;;;9.97;6.87;;;9.00;99.90;;;;;;5117602;28;20566;-68
2021/11/07 03:12:40;;;;;;;9.83;6.70;;;9.00;99.90;;;;;;5117456;28;20457;-70
2021/11/07 03:15:11;;;;;;;7.40;5.87;;;9.00;99.90;;;;;;5116915;27;20896;-68
2021/11/07 03:17:38;;;;;;;8.27;6.33;;;9.00;99.90;;;;;;5117570;28;20465;-69
2021/11/07 03:20:06;;;;;;;10.10;7.23;;;8.90;99.90;;;;;;5117501;28;20484;-69
2021/11/07 03:22:36;;;;;;;8.33;6.63;;;9.00;99.90;;;;;;5117299;28;20822;-68
2021/11/07 03:25:04;;;;;;;9.00;6.30;;;9.00;99.90;;;;;;5117259;28;20464;-68
2021/11/07 03:27:36;;;;;;;7.70;6.53;;;9.00;99.90;;;;;;5117299;28;20459;-68
2021/11/07 03:30:11;;;;;;;9.07;6.63;;;8.90;99.90;;;;;;5116863;28;20527;-68
2021/11/07 03:32:39;;;;;;;9.80;6.70;;;9.00;99.90;;;;;;5117223;28;20494;-69
2021/11/07 03:35:15;;;;;;;6.73;6.03;;;8.90;99.90;;;;;;5117062;28;20484;-68
2021/11/07 03:37:54;;;;;;;10.60;6.30;;;9.00;99.90;;;;;;5116802;28;20525;-68
2021/11/07 03:40:21;;;;;;;8.80;6.67;;;9.00;99.90;;;;;;5116588;28;20487;-68
2021/11/07 03:42:48;;;;;;;5.97;5.37;;;9.00;99.90;;;;;;5116768;28;20460;-70
2021/11/07 03:45:19;;;;;;;6.73;6.00;;;9.00;99.90;;;;;;5116615;28;20780;-70
2021/11/07 03:47:46;;;;;;;7.20;6.20;;;9.00;99.90;;;;;;5116515;28;20456;-69
2021/11/07 03:50:13;;;;;;;6.97;5.93;;;9.00;99.90;;;;;;5116390;28;20464;-68
2021/11/07 03:52:39;;;;;;;7.37;5.57;;;9.00;99.90;;;;;;5116505;28;20834;-69
2021/11/07 03:55:08;;;;;;;8.63;6.20;;;9.00;99.90;;;;;;5117119;28;20470;-69
2021/11/07 03:57:35;;;;;;;12.53;7.00;;;9.00;99.90;;;;;;5116617;28;20480;-69
2021/11/07 04:00:02;;;;;;;8.40;6.40;;;8.90;99.90;;;;;;5116263;28;20453;-69
2021/11/07 04:02:30;;;;;;;7.40;5.50;;;8.80;99.90;;;;;;5116211;28;20462;-69
2021/11/07 04:04:56;;;;;;;7.50;6.10;;;8.60;99.90;;;;;;5116451;28;20456;-69
2021/11/07 04:07:23;;;;;;;9.00;5.87;;;8.60;99.90;;;;;;5115719;28;20436;-69
2021/11/07 04:09:50;;;;;;;7.03;6.00;;;8.60;99.90;;;;;;5116352;28;20467;-69
2021/11/07 04:12:17;;;;;;;9.70;7.33;;;8.60;99.90;;;;;;5115988;28;20487;-69
2021/11/07 04:14:44;;;;;;;10.03;6.70;;;8.50;99.90;;;;;;5116018;28;20452;-69
2021/11/07 04:17:11;;;;;;;8.80;6.90;;;8.50;99.90;;;;;;5115962;28;20499;-69
2021/11/07 04:19:39;;;;;;;8.77;6.17;;;8.50;99.90;;;;;;5115581;27;20550;-69
2021/11/07 04:22:08;;;;;;;7.83;5.90;;;8.50;99.90;;;;;;5115616;28;20456;-68
2021/11/07 04:24:36;;;;;;;8.10;7.17;;;8.50;99.90;;;;;;5115799;28;20499;-69
2021/11/07 04:27:04;;;;;;;7.30;6.50;;;8.50;99.90;;;;;;5115794;28;20456;-69
2021/11/07 04:29:31;;;;;;;7.10;5.77;;;8.50;99.90;;;;;;5115451;27;20489;-68
2021/11/07 04:31:57;;;;;;;7.43;5.90;;;8.50;99.90;;;;;;5115615;27;20504;-69
2021/11/07 04:34:25;;;;;;;6.27;5.30;;;8.60;99.90;;;;;;5116044;28;20878;-69
2021/11/07 04:36:54;;;;;;;6.30;5.17;;;8.60;99.90;;;;;;5115024;28;20491;-68
2021/11/07 04:39:22;;;;;;;10.13;5.37;;;8.70;99.90;;;;;;5115822;28;20825;-68
2021/11/07 04:41:49;;;;;;;6.20;4.83;;;8.80;99.90;;;;;;5115176;28;20954;-68
2021/11/07 04:44:16;;;;;;;8.40;5.40;;;8.80;99.90;;;;;;5115398;28;20789;-69
2021/11/07 04:46:43;;;;;;;7.10;4.93;;;8.80;99.90;;;;;;5115176;28;20935;-68
2021/11/07 04:49:10;;;;;;;5.80;4.93;;;8.80;99.90;;;;;;5115289;28;20452;-68
2021/11/07 04:51:36;;;;;;;7.50;5.20;;;8.80;99.90;;;;;;5115147;28;21033;-68
2021/11/07 04:54:04;;;;;;;6.07;5.20;;;8.80;99.90;;;;;;5115788;28;20452;-68
2021/11/07 04:56:31;;;;;;;10.43;4.90;;;8.70;99.90;;;;;;5114991;28;20521;-69
2021/11/07 04:59:01;;;;;;;6.50;5.33;;;8.80;99.90;;;;;;5115188;28;20766;-68
2021/11/07 05:01:28;;;;;;;6.27;5.40;;;8.70;99.90;;;;;;5115559;28;20528;-69
2021/11/07 05:03:54;;;;;;;6.40;5.27;;;8.80;99.90;;;;;;5115268;28;20483;-68
2021/11/07 05:06:22;;;;;;;5.83;5.20;;;8.80;99.90;;;;;;5114560;28;20572;-68
2021/11/07 05:08:48;;;;;;;6.27;5.03;;;8.80;99.90;;;;;;5115235;28;20453;-69
2021/11/07 05:11:17;;;;;;;6.43;5.67;;;8.90;99.90;;;;;;5115659;28;20525;-68
2021/11/07 05:13:43;;;;;;;6.63;5.27;;;8.90;99.90;;;;;;5114579;28;20463;-68
2021/11/07 05:16:10;;;;;;;7.33;5.47;;;8.90;99.90;;;;;;5115200;28;20781;-69
2021/11/07 05:18:37;;;;;;;5.47;4.83;;;8.90;99.90;;;;;;5115074;28;20486;-68
2021/11/07 05:21:04;;;;;;;6.73;4.67;;;9.00;99.90;;;;;;5115185;28;20468;-70
2021/11/07 05:23:31;;;;;;;7.23;4.70;;;9.10;99.90;;;;;;5114257;28;20455;-69
2021/11/07 05:25:58;;;;;;;4.07;3.47;;;9.10;99.90;;;;;;5114996;28;20461;-68
2021/11/07 05:28:27;;;;;;;7.73;5.10;;;9.20;99.90;;;;;;5115241;28;20499;-68
2021/11/07 05:30:55;;;;;;;4.93;4.03;;;9.20;99.90;;;;;;5114949;28;20591;-67
2021/11/07 05:33:22;;;;;;;4.73;4.00;;;9.20;99.90;;;;;;5114880;28;20543;-68
2021/11/07 05:35:49;;;;;;;9.57;4.70;;;9.30;99.90;;;;;;5115238;28;20469;-68
2021/11/07 05:38:16;;;;;;;8.93;4.33;;;9.30;99.90;;;;;;5114669;28;20491;-71
2021/11/07 05:40:43;;;;;;;6.10;4.40;;;9.40;99.90;;;;;;5115190;28;20815;-68
2021/11/07 05:43:09;;;;;;;6.30;3.93;;;9.40;99.90;;;;;;5114361;28;20919;-68
2021/11/07 05:45:37;;;;;;;7.13;4.30;;;9.40;99.90;;;;;;5115079;28;20535;-68
2021/11/07 05:48:06;;;;;;;6.10;4.40;;;9.50;99.90;;;;;;5115197;28;20482;-69
2021/11/07 05:50:34;;;;;;;9.10;4.67;;;9.50;99.90;;;;;;5114836;28;20453;-68
2021/11/07 05:53:01;;;;;;;4.83;4.20;;;9.60;99.90;;;;;;5115324;28;20796;-69
2021/11/07 05:55:27;;;;;;;5.80;4.13;;;9.50;99.90;;;;;;5115856;28;20456;-68
2021/11/07 05:57:54;;;;;;;4.80;4.30;;;9.50;99.90;;;;;;5115294;28;20575;-69
2021/11/07 06:00:21;;;;;;;5.10;4.30;;;9.50;99.90;;;;;;5114837;28;20547;-68
2021/11/07 06:02:50;;;;;;;6.23;4.97;;;9.50;99.90;;;;;;5114598;28;20457;-68
2021/11/07 06:05:18;;;;;;;8.90;4.37;;;9.50;99.90;;;;;;5114414;28;20484;-68
2021/11/07 06:07:44;;;;;;;10.00;4.73;;;9.50;99.90;;;;;;5114491;28;20482;-68
2021/11/07 06:10:11;;;;;;;4.77;4.27;;;9.50;99.90;;;;;;5114709;28;20453;-68
2021/11/07 06:12:38;;;;;;;5.93;4.53;;;9.50;99.90;;;;;;5114465;28;20456;-69
2021/11/07 06:15:06;;;;;;;5.33;4.20;;;9.60;99.90;;;;;;5114417;28;20517;-69
2021/11/07 06:17:33;;;;;;;4.87;3.77;;;9.60;99.90;;;;;;5114762;28;20830;-68
2021/11/07 06:20:02;;;;;;;6.10;4.37;;;9.60;99.90;;;;;;5114237;28;20466;-68
2021/11/07 06:22:29;;;;;;;5.90;4.10;;;9.70;99.90;;;;;;5114610;28;20789;-68
2021/11/07 06:24:56;;;;;;;5.40;4.17;;;9.70;99.90;;;;;;5114448;28;20464;-68
2021/11/07 06:27:26;;;;;;;5.10;4.60;;;9.80;99.90;;;;;;5114401;28;20457;-68
2021/11/07 06:29:53;;;;;;;6.00;4.33;;;9.80;99.90;;;;;;5114516;28;20839;-68
2021/11/07 06:32:19;;;;;;;4.37;3.67;;;9.80;99.90;;;;;;5114503;28;20457;-69
2021/11/07 06:34:46;;;;;;;4.87;4.00;;;9.80;99.90;;;;;;5115152;28;20469;-68
2021/11/07 06:37:14;;;;;;;6.10;4.10;;;9.90;99.90;;;;;;5117665;28;20455;-69
2021/11/07 06:39:41;;;;;;;4.43;4.00;;;9.90;99.90;;;;;;5117963;28;20581;-69
2021/11/07 06:42:09;;;;;;;7.07;4.00;;;9.80;99.90;;;;;;5117972;28;20457;-69
2021/11/07 06:44:36;;;;;;;4.83;4.30;;;9.70;99.90;;;;;;5117417;28;20507;-69
2021/11/07 06:47:03;;;;;;;5.83;4.87;;;9.60;99.90;;;;;;5117969;28;20457;-68
2021/11/07 06:49:30;;;;;;;6.67;4.47;;;9.60;99.90;;;;;;5118468;27;20919;-68
2021/11/07 06:51:57;;;;;;;10.33;5.17;;;9.60;99.90;;;;;;5117614;28;20461;-68
2021/11/07 06:54:26;;;;;;;5.03;4.53;;;9.50;99.90;;;;;;5117189;28;20465;-68
2021/11/07 06:56:53;;;;;;;5.90;4.77;;;9.40;99.90;;;;;;5117421;28;20461;-68
2021/11/07 06:59:20;;;;;;;7.30;5.10;;;9.30;99.90;;;;;;5117771;28;20772;-68
2021/11/07 07:01:47;;;;;;;5.50;4.80;;;9.30;99.90;;;;;;5117836;28;20456;-68
2021/11/07 07:04:14;;;;;;;6.83;5.13;;;9.30;99.90;;;;;;5117514;28;20457;-69
2021/11/07 07:06:40;;;;;;;5.77;4.80;;;9.30;99.90;;;;;;5117127;28;20542;-68
2021/11/07 07:09:09;;;;;;;6.37;4.87;;;9.30;99.90;;;;;;5117684;28;20777;-69
2021/11/07 07:11:42;;;;;;;5.50;4.80;;;9.30;99.90;;;;;;5117213;28;20496;-69
2021/11/07 07:14:12;;;;;;;5.47;4.53;;;9.40;99.90;;;;;;5117491;28;20445;-68
2021/11/07 07:16:45;;;;;;;9.03;6.33;;;9.40;99.90;;;;;;5117265;28;20909;-68
2021/11/07 07:19:27;;;;;;;6.43;5.10;;;9.40;99.90;;;;;;5117456;28;20466;-68
2021/11/07 07:22:10;;;;;;;5.83;4.47;;;9.40;99.90;;;;;;5117147;28;20447;-68
2021/11/07 07:30:27;;;;;;;8.17;4.77;;;9.50;99.90;;;;;;5116644;28;20895;-68
2021/11/07 07:33:00;;;;;;;6.53;4.30;;;9.50;99.90;;;;;;5116970;28;20452;-68
2021/11/07 07:35:28;;;;;;;5.07;4.33;;;9.50;99.90;;;;;;5116840;28;20440;-68
2021/11/07 07:37:55;;;;;;;5.07;4.60;;;9.50;99.90;;;;;;5116827;28;20541;-68
2021/11/07 07:40:23;;;;;;;6.30;4.77;;;9.50;99.90;;;;;;5116735;28;20461;-68
2021/11/07 07:42:52;;;;;;;5.73;4.43;;;9.60;99.90;;;;;;5117138;28;20455;-68
2021/11/07 07:45:19;;;;;;;4.50;4.10;;;9.50;99.90;;;;;;5116469;28;20454;-68
2021/11/07 07:47:46;;;;;;;6.47;4.23;;;9.50;99.90;;;;;;5116872;28;20449;-69
2021/11/07 07:50:16;;;;;;;5.40;4.90;;;9.40;99.90;;;;;;5116410;28;20467;-69
2021/11/07 07:52:42;;;;;;;4.60;4.20;;;9.40;99.90;;;;;;5116742;28;20493;-69
2021/11/07 07:55:10;;;;;;;7.07;4.90;;;9.30;99.90;;;;;;5116391;28;20457;-69
2021/11/07 07:57:38;;;;;;;5.50;4.50;;;9.20;99.90;;;;;;5115873;28;20999;-69
2021/11/07 08:00:08;;;;;;;7.13;4.93;;;9.20;99.90;;;;;;5116274;28;20464;-69
2021/11/07 08:02:34;;;;;;;6.83;5.20;;;9.30;99.90;;;;;;5116526;28;20935;-68
2021/11/07 08:05:01;;;;;;;4.97;4.37;;;9.30;99.90;;;;;;5116159;28;20460;-68
2021/11/07 08:07:28;;;;;;;6.30;4.40;;;9.30;99.90;;;;;;5116205;28;20521;-69
2021/11/07 08:09:56;;;;;;;5.73;4.57;;;9.30;99.90;;;;;;5116031;28;20452;-68
2021/11/07 08:12:23;;;;;;;5.07;4.57;;;9.30;99.90;;;;;;5116013;28;20555;-67
2021/11/07 08:14:50;;;;;;;5.27;4.43;;;9.40;99.90;;;;;;5116034;28;20445;-68
2021/11/07 08:17:18;;;;;;;5.50;4.80;;;9.40;99.90;;;;;;5115800;28;20460;-69
2021/11/07 08:19:46;;;;;;;4.50;4.00;;;9.40;99.90;;;;;;5116162;28;20936;-68
2021/11/07 08:22:13;;;;;;;4.87;3.93;;;9.40;99.90;;;;;;5115971;28;20495;-67
2021/11/07 08:24:41;;;;;;;6.20;4.33;;;9.50;99.90;;;;;;5115720;28;20479;-67
2021/11/07 08:27:08;;;;;;;7.27;4.67;;;9.50;99.90;;;;;;5115848;28;20459;-67
2021/11/07 08:29:35;;;;;;;6.40;4.07;;;9.60;99.90;;;;;;5116087;28;20537;-68
2021/11/07 08:32:03;;;;;;;4.60;3.50;;;9.60;99.90;;;;;;5115575;28;20556;-69
2021/11/07 08:34:32;;;;;;;4.83;3.90;;;9.70;99.90;;;;;;5115597;28;21037;-68
2021/11/07 08:37:03;;;;;;;6.83;4.17;;;9.70;99.90;;;;;;5115766;27;20455;-69
2021/11/07 08:39:33;;;;;;;4.70;3.70;;;9.80;99.90;;;;;;5115615;28;20468;-69
2021/11/07 08:42:02;;;;;;;8.40;3.90;;;9.80;99.90;;;;;;5115476;28;20458;-69
2021/11/07 09:01:05;;;;;;;4.83;3.67;;;10.10;99.90;;;;;;5115399;28;20431;-68
2021/11/07 09:03:44;;;;;;;4.00;3.57;;;10.20;99.90;;;;;;5115707;28;20441;-68
2021/11/07 09:08:56;;;;;;;4.83;4.13;;;10.30;99.90;;;;;;5107946;28;20548;-68
2021/11/07 09:11:23;;;;;;;7.63;3.50;;;10.40;99.90;;;;;;5115557;28;20847;-68
2021/11/07 09:13:49;;;;;;;5.30;3.70;;;10.40;99.90;;;;;;5115269;28;20493;-70
2021/11/07 09:16:16;;;;;;;4.43;3.60;;;10.40;99.90;;;;;;5115332;28;20470;-70
2021/11/07 09:18:43;;;;;;;5.27;4.60;;;10.40;99.90;;;;;;5115250;28;20819;-71
2021/11/07 09:21:16;;;;;;;3.07;2.53;;;10.50;99.90;;;;;;5115646;28;20458;-70
2021/11/07 09:23:47;;;;;;;4.60;2.93;;;10.50;99.90;;;;;;5115233;28;20473;-70
2021/11/07 09:26:25;;;;;;;5.07;2.60;;;10.50;99.90;;;;;;5115083;28;20547;-70
2021/11/07 09:28:56;;;;;;;3.00;2.80;;;10.60;99.90;;;;;;5114897;28;20436;-68
2021/11/07 09:31:38;;;;;;;7.53;2.97;;;10.60;99.90;;;;;;5114513;28;20477;-70
2021/11/07 09:34:19;;;;;;;4.13;2.90;;;10.70;99.90;;;;;;5114563;28;20444;-70
2021/11/07 09:36:50;;;;;;;3.20;2.30;;;10.80;99.90;;;;;;5115373;28;20433;-69
2021/11/07 09:39:21;;;;;;;2.80;2.20;;;10.90;99.90;;;;;;5114733;28;20550;-69
2021/11/07 09:42:04;;;;;;;3.60;2.30;;;10.90;99.90;;;;;;5114709;28;20488;-70
2021/11/07 09:44:38;;;;;;;2.97;2.60;;;11.00;99.90;;;;;;5115323;28;20480;-68
2021/11/07 09:47:07;;;;;;;3.33;2.53;;;11.00;99.90;;;;;;5114688;28;20472;-68
2021/11/07 09:49:37;;;;;;;3.30;2.43;;;11.00;99.90;;;;;;5114798;28;20452;-69
2021/11/07 09:52:10;;;;;;;2.20;1.90;;;11.10;99.90;;;;;;5114661;28;20434;-69
2021/11/07 09:54:37;;;;;;;6.40;2.30;;;11.10;99.90;;;;;;5114985;28;20833;-69
2021/11/07 09:57:05;;;;;;;3.20;2.47;;;11.10;99.90;;;;;;5115289;28;20470;-69
2021/11/07 09:59:32;;;;;;;4.17;3.00;;;11.10;99.90;;;;;;5114364;28;20537;-67
2021/11/07 10:02:00;;;;;;;4.17;2.37;;;11.10;99.90;;;;;;5114913;28;20544;-68
2021/11/07 10:04:28;;;;;;;3.50;2.00;;;11.20;99.90;;;;;;5115240;28;20996;-68
2021/11/07 10:06:58;;;;;;;3.10;2.30;;;11.20;99.90;;;;;;5114601;28;20869;-68
2021/11/07 10:09:34;;;;;;;4.90;2.30;;;11.30;99.90;;;;;;5116840;28;20446;-68
2021/11/07 10:12:04;;;;;;;4.23;2.17;;;11.40;99.90;;;;;;5119344;27;20513;-68
2021/11/07 10:14:42;;;;;;;4.40;2.10;;;11.50;99.90;;;;;;5119066;28;20937;-68
2021/11/07 10:17:25;;;;;;;3.10;2.00;;;11.60;99.90;;;;;;5118911;28;20436;-68
2021/11/07 10:20:02;;;;;;;2.20;1.80;;;11.60;99.90;;;;;;5118603;28;20473;-68
2021/11/07 10:22:32;;;;;;;4.10;2.00;;;11.60;99.90;;;;;;5119288;28;20531;-68
2021/11/07 10:25:01;;;;;;;4.97;2.30;;;11.60;99.90;;;;;;5118380;28;20493;-68
2021/11/07 10:27:29;;;;;;;6.97;2.53;;;11.40;99.90;;;;;;5118069;28;20463;-68
2021/11/07 10:30:14;;;;;;;5.93;2.20;;;11.40;99.90;;;;;;5118253;28;20449;-68
2021/11/07 10:32:53;;;;;;;7.00;2.10;;;11.50;99.90;;;;;;5118274;28;20436;-68
2021/11/07 10:35:37;;;;;;;3.80;1.67;;;11.50;99.90;;;;;;5118201;27;20538;-68
2021/11/07 10:38:22;;;;;;;8.80;2.50;;;11.40;99.90;;;;;;5118507;28;20467;-69
2021/11/07 10:41:03;;;;;;;4.63;3.03;;;11.40;99.90;;;;;;5118674;28;20433;-69
2021/11/07 10:43:52;;;;;;;4.47;2.13;;;11.30;99.90;;;;;;5118213;28;20896;-68
2021/11/07 10:46:39;;;;;;;4.80;2.00;;;11.30;99.90;;;;;;5118013;28;20443;-68
2021/11/07 10:52:13;;;;;;;6.10;2.50;;;11.30;99.90;;;;;;5117756;28;20420;-69
2021/11/07 10:54:44;;;;;;;10.40;2.73;;;11.20;99.90;;;;;;5117396;28;20540;-69
2021/11/07 10:57:15;;;;;;;4.07;1.97;;;11.10;99.90;;;;;;5117556;28;20451;-68
2021/11/07 10:59:42;;;;;;;4.03;2.27;;;11.10;99.90;;;;;;5117867;28;20480;-69
2021/11/07 11:02:33;;;;;;;4.10;1.90;;;11.20;99.90;;;;;;5117608;28;20543;-70
2021/11/07 11:05:01;;;;;;;5.60;2.27;;;11.20;99.90;;;;;;5117402;28;20436;-69
2021/11/07 11:07:28;;;;;;;4.03;1.70;;;11.10;99.90;;;;;;5117830;28;20436;-69
2021/11/07 11:10:16;;;;;;;4.30;1.40;;;11.00;99.90;;;;;;5117634;28;20463;-69
2021/11/07 11:13:08;;;;;;;3.13;1.40;;;10.60;99.90;;;;;;5117193;28;20441;-69
2021/11/07 11:15:43;;;;;;;4.30;2.53;;;10.20;99.90;;;;;;5117566;28;20560;-71
2021/11/07 11:21:21;;;;;;;4.07;2.30;;;9.80;99.90;;;;;;5115986;28;20442;-71
2021/11/07 11:24:13;;;;;;;4.70;1.97;;;9.50;99.90;;;;;;5117677;28;20528;-71
2021/11/07 11:26:50;;;;;;;3.70;1.57;;;9.20;99.90;;;;;;5117402;28;20490;-70
2021/11/07 11:32:17;;;;;;;8.00;2.20;;;8.90;99.90;;;;;;5080276;28;20537;-71
2021/11/07 11:34:48;;;;;;;3.90;1.90;;;8.90;99.90;;;;;;5117170;28;20437;-71
2021/11/07 11:37:21;;;;;;;2.57;1.67;;;8.80;99.90;;;;;;5116946;28;20502;-71
2021/11/07 11:39:55;;;;;;;3.10;1.70;;;8.80;99.90;;;;;;5116762;28;20476;-71
2021/11/07 11:42:27;;;;;;;3.73;2.13;;;8.80;99.90;;;;;;5116732;28;20487;-70
2021/11/07 11:44:56;;;;;;;3.53;1.60;;;8.80;99.90;;;;;;5116943;28;20808;-71
2021/11/07 11:47:44;;;;;;;2.10;1.90;;;8.80;99.90;;;;;;5117005;28;20456;-71
2021/11/07 11:50:36;;;;;;;6.93;2.70;;;8.80;99.90;;;;;;5116871;28;20438;-71
2021/11/07 11:53:21;;;;;;;5.90;2.27;;;8.90;99.90;;;;;;5116812;28;20766;-71
2021/11/07 11:55:52;;;;;;;3.27;2.30;;;9.00;99.90;;;;;;5116136;27;20453;-70
2021/11/07 12:01:18;;;;;;;8.77;3.90;;;9.20;99.90;;;;;;5133166;27;20528;-68
2021/11/07 12:03:57;;;;;;;7.33;4.30;;;9.60;99.90;;;;;;5133661;28;20466;-68
2021/11/07 12:06:30;;;;;;;5.20;2.63;;;9.70;99.90;;;;;;5133613;28;20437;-69
2021/11/07 12:12:05;;;;;;;2.40;1.60;;;10.10;99.90;;;;;;5130316;27;20461;-69
2021/11/07 12:14:58;;;;;;;4.07;2.27;;;10.20;99.90;;;;;;5133392;28;20527;-68
2021/11/07 12:17:33;;;;;;;6.10;3.20;;;10.60;99.90;;;;;;5132883;27;20917;-69
2021/11/07 12:20:01;;;;;;;7.23;2.57;;;11.00;99.90;;;;;;5132536;28;20475;-70
2021/11/07 12:22:31;;;;;;;4.33;2.70;;;11.30;99.90;;;;;;5132630;28;20452;-70
2021/11/07 12:25:12;;;;;;;2.63;2.13;;;11.60;99.90;;;;;;5133637;28;20455;-69
2021/11/07 12:27:47;;;;;;;2.60;1.83;;;11.70;99.90;;;;;;5132505;28;20844;-68
2021/11/07 12:30:24;;;;;;;7.20;2.23;;;11.40;99.90;;;;;;5132889;27;20825;-69
2021/11/07 12:33:03;;;;;;;3.50;1.87;;;11.00;99.90;;;;;;5132326;28;20443;-69
2021/11/07 12:35:36;;;;;;;10.33;2.63;;;10.70;99.90;;;;;;5132697;28;20468;-69
2021/11/07 12:40:59;;;;;;;5.90;2.27;;;10.60;99.90;;;;;;5132279;28;20523;-70
2021/11/07 12:43:36;;;;;;;3.57;2.27;;;10.50;99.90;;;;;;5132301;28;20439;-69
2021/11/07 12:46:16;;;;;;;9.57;2.50;;;10.40;99.90;;;;;;5132349;28;20439;-70
2021/11/07 12:48:48;;;;;;;5.20;2.20;;;10.60;99.90;;;;;;5132098;28;20436;-68
2021/11/07 12:51:18;;;;;;;8.80;2.50;;;11.20;99.90;;;;;;5132098;28;20773;-69
2021/11/07 12:54:03;;;;;;;4.00;2.60;;;11.50;99.90;;;;;;5132280;28;20596;-68
2021/11/07 12:56:35;;;;;;;5.10;2.33;;;11.90;99.90;;;;;;5132173;28;20476;-71
2021/11/07 12:59:05;;;;;;;6.57;1.83;;;12.60;99.90;;;;;;5131387;28;20767;-70
2021/11/07 13:01:54;;;;;;;5.50;2.10;;;12.90;99.90;;;;;;5131856;27;20526;-71
2021/11/07 13:04:23;;;;;;;4.47;1.70;;;12.70;99.90;;;;;;5132630;28;20446;-71
2021/11/07 13:06:54;;;;;;;5.10;1.97;;;12.70;99.90;;;;;;5131374;27;20467;-71
2021/11/07 13:09:24;;;;;;;3.53;2.17;;;12.90;99.90;;;;;;5131401;28;20441;-71
2021/11/07 13:11:55;;;;;;;5.43;1.63;;;13.40;99.90;;;;;;5121968;28;20452;-68
2021/11/07 13:14:33;;;;;;;8.70;2.17;;;13.40;99.90;;;;;;5118187;28;20449;-68
2021/11/07 13:17:20;;;;;;;4.67;2.03;;;13.20;99.90;;;;;;5117889;28;20463;-68
2021/11/07 13:20:24;;;;;;;4.70;2.13;;;12.90;99.90;;;;;;5117933;28;20466;-68
2021/11/07 13:23:13;;;;;;;3.37;1.70;;;12.90;99.90;;;;;;5117608;28;20455;-68
2021/11/07 13:25:50;;;;;;;5.60;2.07;;;12.70;99.90;;;;;;5117667;28;20469;-69
2021/11/07 13:28:22;;;;;;;6.87;1.77;;;12.40;99.90;;;;;;5117696;27;20806;-69
2021/11/07 13:31:04;;;;;;;6.50;1.50;;;12.60;99.90;;;;;;5117636;28;20540;-68
2021/11/07 13:33:31;;;;;;;3.00;1.53;;;12.50;99.90;;;;;;5117658;28;20452;-70
2021/11/07 13:36:00;;;;;;;7.63;2.00;;;12.30;99.90;;;;;;5117118;28;20496;-69
2021/11/07 13:38:29;;;;;;;6.60;1.60;;;11.90;99.90;;;;;;5116730;28;20914;-69
2021/11/07 13:40:56;;;;;;;5.00;2.37;;;11.60;99.90;;;;;;5116808;28;20553;-69
2021/11/07 13:43:28;;;;;;;5.73;1.93;;;11.30;99.90;;;;;;5117428;28;20453;-69
2021/11/07 13:45:56;;;;;;;5.30;2.40;;;11.20;99.90;;;;;;5117274;28;20442;-69
2021/11/07 13:48:28;;;;;;;6.77;2.00;;;11.00;99.90;;;;;;5116756;28;20457;-68
2021/11/07 13:50:56;;;;;;;5.80;2.33;;;10.80;99.90;;;;;;5116674;28;20917;-69
2021/11/07 13:53:25;;;;;;;6.93;2.20;;;10.60;99.90;;;;;;5116595;28;20455;-70
2021/11/07 13:55:54;;;;;;;11.00;2.50;;;10.50;99.90;;;;;;5116495;28;20455;-70